»·PEaware :: N494SP KSBA-KBUR

N494SP :: KSBA-KBUR

FLIGHT INFORMATION

Flight Status: Arrived
Operator: Privately registered:
United States
More flights under this callsign
Pilot: Arik L. (33213)
Aircraft: CESSNA 172 SKYHAWK
(C172)
More flights by this aircraft type
Origin: KSBA Santa Barbara Mun
United States
Destination: KBUR Bob Hope-Burbank
United States
More flights between these airports :: More routes between these airports
Route:
File this flight plan on PilotEdge
Remarks:
Altitude:
(Current/Filed)
7,500ft
Speed:
(Current/Filed)
120kts
Departed: 20-Jan-21 05:11 PM
Arrived: 20-Jan-21 06:03 PM
Distance/Time
Traveled:
6855nm/0:51
Distance/Time
To Go:
Arrived

Flight Plot

Page will automatically refresh every two minutes.


Map Options




Map Legend


Flown Route
Filed Route
Departure Airport
Arrival Airport
Navaid (VOR, NDB)
Fix

Horizontal Profiles

Position Reports

Time Latitude Longitude Heading Altitude Ground
Speed
20-Jan-21 16:55 34.422275 -119.836826 250 17ft 0kts
20-Jan-21 16:56 34.422275 -119.836825 250 17ft 0kts
20-Jan-21 16:57 34.422275 -119.836825 250 17ft 0kts
20-Jan-21 16:58 34.422275 -119.836825 250 17ft 0kts
20-Jan-21 16:59 34.422275 -119.836825 250 17ft 0kts
20-Jan-21 17:00 34.422275 -119.836825 250 17ft 0kts
20-Jan-21 17:01 34.422275 -119.836825 250 17ft 0kts
20-Jan-21 17:02 34.422275 -119.836825 250 17ft 0kts
20-Jan-21 17:03 34.422275 -119.836825 250 17ft 0kts
20-Jan-21 17:04 34.422275 -119.836825 250 17ft 0kts
20-Jan-21 17:05 34.422686 -119.837047 281 17ft 7kts
20-Jan-21 17:06 34.426161 -119.838194 344 18ft 13kts
20-Jan-21 17:07 34.426707 -119.834934 90 16ft 11kts
20-Jan-21 17:08 34.426908 -119.834292 345 16ft 0kts
20-Jan-21 17:09 34.426938 -119.834302 344 16ft 0kts
20-Jan-21 17:10 34.427787 -119.840542 268 34ft 70kts
20-Jan-21 17:11 34.426293 -119.869193 267 509ft 97kts
20-Jan-21 17:12 34.421183 -119.900982 251 946ft 100kts
20-Jan-21 17:13 34.416746 -119.932962 262 1373ft 96kts
20-Jan-21 17:14 34.406583 -119.942358 70 1978ft 79kts
20-Jan-21 17:15 34.410696 -119.911512 92 2403ft 106kts
20-Jan-21 17:16 34.408589 -119.873604 88 2940ft 108kts
20-Jan-21 17:17 34.409629 -119.841889 87 3886ft 76kts
20-Jan-21 17:18 34.410599 -119.820145 86 4471ft 59kts
20-Jan-21 17:19 34.412047 -119.786228 87 4455ft 122kts
20-Jan-21 17:20 34.413605 -119.747038 86 4992ft 107kts
20-Jan-21 17:21 34.408870 -119.713766 102 5682ft 94kts
20-Jan-21 17:22 34.403590 -119.684835 102 6337ft 84kts
20-Jan-21 17:23 34.397778 -119.653322 103 6718ft 103kts
20-Jan-21 17:24 34.391314 -119.618646 103 7110ft 106kts
20-Jan-21 17:25 34.384793 -119.583719 103 7453ft 109kts
20-Jan-21 17:26 34.378214 -119.545160 99 7497ft 122kts
20-Jan-21 17:27 34.373291 -119.504236 98 7495ft 118kts
20-Jan-21 17:28 34.368813 -119.465245 98 7500ft 117kts
20-Jan-21 17:29 34.364338 -119.424681 92 7503ft 125kts
20-Jan-21 17:30 34.374446 -119.384709 67 7497ft 125kts
20-Jan-21 17:31 34.387645 -119.345831 68 7500ft 124kts
20-Jan-21 17:32 34.394213 -119.304625 84 7500ft 125kts
20-Jan-21 17:33 34.394600 -119.262621 102 7499ft 125kts
20-Jan-21 17:34 34.386624 -119.221776 96 7500ft 125kts
20-Jan-21 17:35 34.383407 -119.179847 95 7500ft 125kts
20-Jan-21 17:36 34.380368 -119.137805 95 7501ft 125kts
20-Jan-21 17:37 34.377405 -119.096607 95 7500ft 125kts
20-Jan-21 17:38 34.374392 -119.054691 95 7501ft 125kts
20-Jan-21 17:39 34.371380 -119.012783 95 7499ft 125kts
20-Jan-21 17:40 34.366718 -118.971000 97 7500ft 125kts
20-Jan-21 17:41 34.362053 -118.930027 97 7500ft 122kts
20-Jan-21 17:42 34.357406 -118.889145 98 7501ft 122kts
20-Jan-21 17:43 34.345618 -118.851324 121 7498ft 121kts
20-Jan-21 17:44 34.329089 -118.815784 115 7500ft 121kts
20-Jan-21 17:45 34.315355 -118.778307 113 7500ft 121kts
20-Jan-21 17:46 34.301798 -118.740645 113 7500ft 121kts
20-Jan-21 17:47 34.287484 -118.700964 113 7075ft 139kts
20-Jan-21 17:48 34.270674 -118.658884 121 6365ft 137kts
20-Jan-21 17:49 34.251220 -118.619486 109 5654ft 136kts
20-Jan-21 17:50 34.241309 -118.575415 104 4961ft 136kts
20-Jan-21 17:51 34.254543 -118.541535 26 4259ft 130kts
20-Jan-21 17:52 34.288927 -118.541660 343 3560ft 128kts
20-Jan-21 17:53 34.316046 -118.559376 251 3120ft 107kts
20-Jan-21 17:54 34.291103 -118.570926 141 3100ft 100kts
20-Jan-21 17:55 34.274524 -118.544061 124 3102ft 100kts
20-Jan-21 17:56 34.259187 -118.516166 124 3097ft 98kts
20-Jan-21 17:57 34.243041 -118.486676 124 3104ft 112kts
20-Jan-21 17:58 34.225883 -118.454521 119 3101ft 110kts
20-Jan-21 17:59 34.214604 -118.425299 108 2638ft 95kts
20-Jan-21 18:00 34.205454 -118.397776 121 1998ft 79kts
20-Jan-21 18:01 34.198008 -118.373580 91 968ft 75kts
20-Jan-21 18:02 34.197439 -118.360273 163 716ft 13kts
20-Jan-21 18:03 34.196857 -118.361810 269 718ft 0kts
20-Jan-21 18:04 34.196185 -118.363167 178 721ft 0kts
20-Jan-21 18:06 0.000408 0.013975 359 3ft 0kts
20-Jan-21 18:07 0.000408 0.013975 359 3ft 0kts
20-Jan-21 18:08 0.000408 0.013975 359 3ft 0kts
20-Jan-21 18:09 0.000408 0.013975 359 3ft 0kts
20-Jan-21 18:10 0.000408 0.013975 359 3ft 0kts
20-Jan-21 18:11 0.000408 0.013975 359 3ft 0kts
20-Jan-21 18:12 0.000408 0.013975 359 3ft 0kts
20-Jan-21 18:13 0.000408 0.013975 359 3ft 0kts
20-Jan-21 18:14 0.000408 0.013975 359 3ft 0kts
20-Jan-21 18:15 0.000408 0.013975 359 3ft 0kts
20-Jan-21 18:16 0.000408 0.013975 359 3ft 0kts
20-Jan-21 18:17 0.000408 0.013975 359 3ft 0kts

Navigation Log

Ident Type
Flight plan parsing failed, navigation log unavailable